createdAt,value
2022-11-17T01:00:37.336Z,39.33
2022-11-17T01:02:23.488Z,35.19
2022-11-17T01:04:09.661Z,34.67
2022-11-17T01:05:55.836Z,35.78
2022-11-17T01:07:42.676Z,35.45
2022-11-17T01:09:28.849Z,33.34
2022-11-17T01:11:15.081Z,37.66
2022-11-17T01:13:01.349Z,32.22
2022-11-17T01:14:47.622Z,36.94
2022-11-17T01:16:33.946Z,39.05
2022-11-17T01:18:20.169Z,35.40
2022-11-17T01:20:06.746Z,36.44
2022-11-17T01:21:53.252Z,36.66
2022-11-17T01:23:39.520Z,37.00
2022-11-17T01:25:25.764Z,34.16
2022-11-17T01:27:12.058Z,31.18
2022-11-17T01:28:58.420Z,32.42
2022-11-17T01:30:44.700Z,30.87
2022-11-17T01:32:31.003Z,31.15
2022-11-17T01:34:17.139Z,30.29
2022-11-17T01:36:03.583Z,29.89
2022-11-17T01:37:49.885Z,26.30
2022-11-17T01:39:36.098Z,26.13
2022-11-17T01:41:22.387Z,23.84
2022-11-17T01:43:09.319Z,23.52
2022-11-17T01:44:55.589Z,20.84
2022-11-17T01:46:41.859Z,23.33
2022-11-17T01:48:28.136Z,23.30
2022-11-17T01:50:14.445Z,21.92
2022-11-17T01:52:00.690Z,19.22
2022-11-17T01:53:46.875Z,17.52
2022-11-17T01:55:33.158Z,17.91
2022-11-17T01:57:19.623Z,16.99
2022-11-17T01:59:06.192Z,19.58
2022-11-17T02:00:52.436Z,18.38
2022-11-17T02:02:38.702Z,21.01
2022-11-17T02:04:25.319Z,21.08
2022-11-17T02:06:11.472Z,20.58
2022-11-17T02:07:58.052Z,23.69
2022-11-17T02:09:44.289Z,20.38
2022-11-17T02:11:30.767Z,20.48
2022-11-17T14:43:34.912Z,43.36
2022-11-17T14:45:21.774Z,42.74
2022-11-17T14:47:08.130Z,40.51
